createdAt,value
2023-03-27T00:01:24.452Z,7.59
2023-03-27T00:03:53.632Z,7.77
2023-03-27T00:06:25.022Z,7.80
2023-03-27T00:08:54.924Z,7.90
2023-03-27T00:11:25.926Z,7.88
2023-03-27T00:13:54.938Z,7.78
2023-03-27T00:16:25.498Z,7.50
2023-03-27T00:18:54.290Z,7.59
2023-03-27T00:21:22.998Z,7.65
2023-03-27T00:23:51.336Z,7.57
2023-03-27T00:26:22.062Z,7.47
2023-03-27T00:28:50.193Z,7.48
2023-03-27T00:31:18.261Z,7.47
2023-03-27T00:33:46.609Z,7.51
2023-03-27T00:36:15.284Z,7.65
2023-03-27T00:38:45.924Z,7.54
2023-03-27T00:41:14.083Z,7.51
2023-03-27T00:43:45.038Z,7.45
2023-03-27T00:46:32.673Z,7.18
2023-03-27T00:49:05.022Z,7.11
2023-03-27T00:51:33.400Z,7.30
2023-03-27T00:54:02.593Z,6.84
2023-03-27T00:56:30.885Z,6.85
2023-03-27T00:59:04.106Z,6.82
2023-03-27T01:01:32.435Z,6.79
2023-03-27T01:04:05.874Z,7.02
2023-03-27T01:06:34.656Z,6.89
2023-03-27T01:09:04.610Z,6.68
2023-03-27T01:11:43.793Z,6.86
2023-03-27T01:14:26.435Z,6.72
2023-03-27T01:17:08.430Z,6.57
2023-03-27T01:19:56.044Z,6.73
2023-03-27T01:22:57.106Z,6.86
2023-03-27T01:26:10.038Z,6.84
2023-03-27T01:28:50.154Z,6.63
2023-03-27T01:31:35.032Z,6.39
2023-03-27T01:34:27.205Z,6.35
2023-03-27T01:37:25.393Z,6.45
2023-03-27T01:40:01.934Z,6.54
2023-03-27T01:42:36.914Z,6.37
2023-03-27T01:45:09.281Z,6.21
2023-03-27T01:47:45.577Z,6.38
2023-03-27T01:50:22.649Z,6.06
2023-03-27T01:52:57.400Z,6.11
2023-03-27T01:55:31.487Z,5.92
2023-03-27T01:58:03.664Z,5.92
2023-03-27T02:00:52.140Z,5.78
2023-03-27T02:03:27.635Z,5.83
2023-03-27T02:06:02.603Z,5.95
2023-03-27T02:08:37.684Z,6.01
2023-03-27T02:11:29.224Z,5.79
2023-03-27T02:14:01.291Z,5.91
2023-03-27T02:16:34.678Z,6.17
2023-03-27T02:19:11.302Z,6.19
2023-03-27T02:21:41.837Z,6.40
2023-03-27T02:24:10.444Z,6.12
2023-03-27T02:26:41.797Z,5.90
2023-03-27T02:29:28.408Z,5.83
2023-03-27T02:32:08.999Z,6.01
2023-03-27T02:34:57.041Z,5.87
2023-03-27T02:37:37.200Z,5.72
2023-03-27T02:40:41.402Z,5.69
2023-03-27T02:43:59.090Z,5.71
2023-03-27T02:46:54.587Z,5.72
2023-03-27T02:49:29.003Z,5.59
2023-03-27T02:52:01.826Z,5.33
2023-03-27T02:54:35.834Z,5.17
2023-03-27T02:57:09.193Z,5.39
2023-03-27T03:00:06.084Z,5.38
2023-03-27T03:02:40.859Z,4.93
2023-03-27T03:05:17.388Z,5.08
2023-03-27T03:07:46.501Z,4.96
2023-03-27T03:10:16.068Z,4.84
2023-03-27T03:12:44.172Z,5.21
2023-03-27T03:15:14.075Z,5.06
2023-03-27T03:17:42.627Z,4.96
2023-03-27T03:20:16.698Z,4.86
2023-03-27T03:22:44.493Z,5.05
2023-03-27T03:25:18.120Z,5.12
2023-03-27T03:27:46.056Z,5.05
2023-03-27T03:30:16.636Z,5.06
2023-03-27T03:33:00.237Z,4.79
2023-03-27T03:35:29.134Z,4.82
2023-03-27T03:37:59.420Z,4.75
2023-03-27T03:40:28.458Z,4.72
2023-03-27T03:42:59.119Z,4.78
2023-03-27T03:45:31.220Z,4.99
2023-03-27T03:47:59.744Z,4.74
2023-03-27T03:50:27.749Z,4.88
2023-03-27T03:52:55.569Z,4.87
2023-03-27T03:55:25.691Z,4.56
2023-03-27T03:57:53.708Z,4.80
2023-03-27T04:00:26.892Z,4.43
2023-03-27T04:02:58.927Z,4.46
2023-03-27T04:05:27.032Z,4.22
2023-03-27T04:07:59.382Z,4.27
2023-03-27T04:10:27.585Z,4.52
2023-03-27T04:12:58.426Z,4.63
2023-03-27T04:15:36.461Z,4.44
2023-03-27T04:18:35.271Z,4.31
2023-03-27T04:21:15.345Z,3.95
2023-03-27T04:23:43.669Z,4.14
2023-03-27T04:26:13.500Z,4.29
2023-03-27T04:29:11.878Z,4.27
2023-03-27T04:31:58.830Z,4.17
2023-03-27T04:34:43.325Z,4.25
2023-03-27T04:37:30.507Z,4.28
2023-03-27T04:40:18.042Z,4.43
2023-03-27T04:42:46.504Z,4.37
2023-03-27T04:45:17.280Z,4.13
2023-03-27T04:47:48.831Z,4.17
2023-03-27T04:50:19.169Z,4.01
2023-03-27T04:52:49.809Z,4.31
2023-03-27T04:55:19.777Z,3.85
2023-03-27T04:57:50.584Z,3.97
2023-03-27T05:00:20.420Z,4.13
2023-03-27T05:02:50.157Z,3.64
2023-03-27T05:05:25.822Z,3.75
2023-03-27T05:07:54.595Z,4.13
2023-03-27T05:10:25.378Z,3.79
2023-03-27T05:12:57.200Z,3.90
2023-03-27T05:15:32.375Z,3.93
2023-03-27T05:18:02.579Z,3.63
2023-03-27T05:20:34.166Z,3.57
2023-03-27T05:23:07.387Z,3.86
2023-03-27T05:25:35.268Z,3.85
2023-03-27T05:28:07.529Z,3.75
2023-03-27T05:30:36.663Z,4.04
2023-03-27T05:33:17.515Z,4.25
2023-03-27T05:35:50.191Z,3.92
2023-03-27T05:38:18.910Z,3.90
2023-03-27T05:41:07.282Z,3.52
2023-03-27T05:43:40.198Z,3.33
2023-03-27T05:46:08.660Z,3.75
2023-03-27T05:48:38.642Z,3.63
2023-03-27T05:51:09.389Z,3.53
2023-03-27T05:53:39.272Z,3.48
2023-03-27T05:56:18.898Z,3.61
2023-03-27T05:58:55.673Z,3.59
2023-03-27T06:01:25.842Z,3.61
2023-03-27T06:03:56.473Z,3.39
2023-03-27T06:06:46.528Z,3.62
2023-03-27T06:09:14.871Z,3.80
2023-03-27T06:11:50.580Z,3.83
2023-03-27T06:14:20.573Z,3.44
2023-03-27T06:17:06.478Z,3.70
2023-03-27T06:19:49.528Z,3.93
2023-03-27T06:22:19.445Z,3.89
2023-03-27T06:24:49.645Z,3.94
2023-03-27T06:27:21.538Z,3.87
2023-03-27T06:29:49.497Z,3.90
2023-03-27T06:32:17.767Z,3.47
2023-03-27T06:34:51.824Z,3.85
2023-03-27T06:37:41.058Z,4.18
2023-03-27T06:40:10.417Z,3.90
2023-03-27T06:42:40.751Z,3.85
2023-03-27T06:45:35.692Z,3.66
2023-03-27T06:48:30.097Z,3.72
2023-03-27T06:50:58.839Z,3.87
2023-03-27T06:53:31.178Z,3.97
2023-03-27T06:56:05.112Z,4.27
2023-03-27T06:58:53.054Z,4.17
2023-03-27T07:01:22.676Z,4.59
2023-03-27T07:03:59.472Z,4.64
2023-03-27T07:06:48.897Z,4.38
2023-03-27T07:09:18.550Z,4.07
2023-03-27T07:11:57.584Z,4.42
2023-03-27T07:14:25.651Z,4.41
2023-03-27T07:16:53.722Z,4.76
2023-03-27T07:19:25.667Z,4.27
2023-03-27T07:22:02.912Z,4.72
2023-03-27T07:24:34.745Z,4.62
2023-03-27T07:27:03.220Z,4.42
2023-03-27T07:29:34.004Z,4.77
2023-03-27T07:32:06.934Z,4.44
2023-03-27T07:34:41.115Z,4.75
2023-03-27T07:37:29.928Z,4.77
2023-03-27T07:40:36.900Z,4.66
2023-03-27T07:43:30.734Z,4.53
2023-03-27T07:46:01.594Z,4.56
2023-03-27T07:48:30.399Z,4.44
2023-03-27T07:51:10.843Z,4.64
2023-03-27T07:53:43.654Z,4.61
2023-03-27T07:56:19.399Z,4.63
2023-03-27T07:58:48.983Z,4.41
2023-03-27T08:01:21.426Z,4.55
2023-03-27T08:03:50.491Z,4.88
2023-03-27T08:06:20.415Z,4.59
2023-03-27T08:08:50.308Z,4.64
2023-03-27T08:11:30.180Z,5.48
2023-03-27T08:13:59.693Z,5.04
2023-03-27T08:16:29.843Z,6.18
2023-03-27T08:19:00.752Z,6.05
2023-03-27T08:21:33.246Z,5.94
2023-03-27T08:24:02.680Z,6.07
2023-03-27T08:26:38.150Z,6.28
2023-03-27T08:29:12.432Z,6.81
2023-03-27T08:31:41.162Z,7.96
2023-03-27T08:34:10.198Z,7.49
2023-03-27T08:36:52.533Z,9.10
2023-03-27T08:39:22.848Z,8.11
2023-03-27T08:42:01.012Z,8.15
2023-03-27T08:44:38.652Z,8.28
2023-03-27T08:47:17.893Z,7.34
2023-03-27T08:49:58.518Z,7.17
2023-03-27T08:52:34.019Z,8.39
2023-03-27T08:55:13.451Z,8.68
2023-03-27T08:57:51.756Z,9.16
2023-03-27T09:00:27.278Z,7.73
2023-03-27T09:03:16.588Z,8.45
2023-03-27T09:05:52.951Z,7.45
2023-03-27T09:08:35.736Z,7.15
2023-03-27T09:11:11.352Z,7.66
2023-03-27T09:13:53.451Z,7.73
2023-03-27T09:16:27.444Z,7.75
2023-03-27T09:19:04.942Z,6.70
2023-03-27T09:21:39.476Z,6.49
2023-03-27T09:24:18.743Z,7.23
2023-03-27T09:27:18.239Z,8.39
2023-03-27T09:30:18.582Z,7.70
2023-03-27T09:32:59.126Z,7.76
2023-03-27T09:35:28.108Z,7.31
2023-03-27T09:38:01.228Z,8.08
2023-03-27T09:40:34.544Z,9.08
2023-03-27T09:43:09.658Z,7.28
2023-03-27T09:45:42.317Z,7.73
2023-03-27T09:48:15.482Z,9.62
2023-03-27T09:50:49.274Z,7.31
2023-03-27T09:53:57.393Z,8.03
2023-03-27T09:56:29.475Z,7.19
2023-03-27T09:58:59.069Z,7.85
2023-03-27T10:01:34.577Z,8.28
2023-03-27T10:04:17.201Z,8.81
2023-03-27T10:06:49.410Z,8.74
2023-03-27T10:09:26.775Z,8.32
2023-03-27T10:12:09.507Z,8.65
2023-03-27T10:14:41.444Z,8.61
2023-03-27T10:17:23.536Z,9.54
2023-03-27T10:20:04.262Z,9.12
2023-03-27T10:22:39.477Z,9.45
2023-03-27T10:25:18.622Z,8.84
2023-03-27T10:27:55.256Z,9.68
2023-03-27T10:30:35.390Z,10.57
2023-03-27T10:33:33.939Z,7.81
2023-03-27T10:36:21.372Z,8.14
2023-03-27T10:38:58.055Z,9.89
2023-03-27T10:41:43.518Z,8.93
2023-03-27T10:44:17.956Z,9.31
2023-03-27T10:46:54.135Z,11.02
2023-03-27T10:49:36.477Z,10.21
2023-03-27T10:52:17.319Z,9.19
2023-03-27T10:55:20.137Z,9.25
2023-03-27T10:57:56.792Z,8.43
2023-03-27T11:00:40.103Z,8.14
2023-03-27T11:03:18.187Z,8.32
2023-03-27T11:06:05.482Z,8.54
2023-03-27T11:08:47.973Z,8.58
2023-03-27T11:11:22.337Z,8.53
2023-03-27T11:13:55.275Z,8.51
2023-03-27T11:16:27.131Z,8.23
2023-03-27T11:19:27.969Z,8.60
2023-03-27T11:22:29.910Z,10.29
2023-03-27T11:25:05.828Z,10.67
2023-03-27T11:27:40.000Z,8.96
2023-03-27T11:30:32.353Z,8.87
2023-03-27T11:33:10.718Z,10.38
2023-03-27T11:35:48.720Z,10.07
2023-03-27T11:38:46.500Z,10.06
2023-03-27T11:41:16.335Z,9.55
2023-03-27T11:43:45.417Z,9.94
2023-03-27T11:46:54.068Z,10.90
2023-03-27T11:50:08.004Z,11.65
2023-03-27T11:52:53.417Z,9.80
2023-03-27T11:55:58.685Z,11.40
2023-03-27T11:58:33.408Z,10.87
2023-03-27T12:01:09.878Z,10.17
2023-03-27T12:04:00.994Z,10.01
2023-03-27T12:06:52.110Z,11.04
2023-03-27T12:09:41.521Z,9.32
2023-03-27T12:13:00.803Z,10.09
2023-03-27T12:15:43.085Z,10.82
2023-03-27T12:18:27.498Z,10.68
2023-03-27T12:21:25.078Z,10.34
2023-03-27T12:24:20.101Z,10.18
2023-03-27T12:27:28.919Z,11.80
2023-03-27T12:30:27.574Z,11.87
2023-03-27T12:33:31.855Z,10.78
2023-03-27T12:36:03.008Z,12.03
2023-03-27T12:38:33.588Z,11.71
2023-03-27T12:41:06.376Z,10.51
2023-03-27T12:43:58.439Z,11.45
2023-03-27T12:47:08.457Z,11.74
2023-03-27T12:49:48.164Z,12.24
2023-03-27T12:52:27.059Z,11.07
2023-03-27T12:55:25.211Z,10.25
2023-03-27T12:58:00.650Z,11.00
2023-03-27T13:00:54.865Z,10.56
2023-03-27T13:04:05.709Z,10.64
2023-03-27T13:06:47.174Z,10.53
2023-03-27T13:09:33.914Z,9.76
2023-03-27T13:12:21.521Z,10.38
2023-03-27T13:15:20.943Z,10.08
2023-03-27T13:18:02.496Z,9.90
2023-03-27T13:20:47.067Z,8.34
2023-03-27T13:23:45.332Z,7.40
2023-03-27T13:26:35.555Z,7.62
2023-03-27T13:29:11.671Z,7.74
2023-03-27T13:32:01.155Z,6.52
2023-03-27T13:35:02.390Z,7.33
2023-03-27T13:37:53.665Z,6.81
2023-03-27T13:40:32.062Z,7.04
2023-03-27T13:43:15.641Z,7.39
2023-03-27T13:45:48.181Z,6.60
2023-03-27T13:48:59.024Z,7.25
2023-03-27T13:52:07.990Z,6.98
2023-03-27T13:55:06.048Z,6.55
2023-03-27T13:58:21.128Z,6.49
2023-03-27T14:01:18.009Z,6.70
2023-03-27T14:04:22.541Z,6.75
2023-03-27T14:07:21.274Z,7.17
2023-03-27T14:10:28.414Z,7.03
2023-03-27T14:13:31.151Z,7.28
2023-03-27T14:16:38.267Z,8.05
2023-03-27T14:19:34.443Z,8.04
2023-03-27T14:22:16.324Z,8.52
2023-03-27T14:25:04.077Z,7.93
2023-03-27T14:27:44.570Z,8.24
2023-03-27T14:30:23.408Z,8.78
2023-03-27T14:33:29.200Z,8.87
2023-03-27T14:36:03.974Z,9.00
2023-03-27T14:38:34.673Z,8.63
2023-03-27T14:41:05.113Z,8.53
2023-03-27T14:43:48.555Z,8.50
2023-03-27T14:46:21.610Z,8.70
2023-03-27T14:48:54.848Z,8.70
2023-03-27T14:51:27.148Z,8.92
2023-03-27T14:54:01.261Z,8.48
2023-03-27T14:56:47.509Z,8.54
2023-03-27T14:59:34.970Z,8.44
2023-03-27T15:02:15.821Z,8.39
2023-03-27T15:04:44.215Z,8.67
2023-03-27T15:07:19.740Z,8.58
2023-03-27T15:10:12.485Z,8.25
2023-03-27T15:12:59.805Z,8.18
2023-03-27T15:15:39.566Z,8.08
2023-03-27T15:18:17.351Z,7.67
2023-03-27T15:20:50.514Z,7.15
2023-03-27T15:23:23.039Z,6.69
2023-03-27T15:25:56.597Z,7.05
2023-03-27T15:28:30.254Z,6.78
2023-03-27T15:31:01.740Z,7.51
2023-03-27T15:33:36.112Z,7.88
2023-03-27T15:36:10.178Z,7.79
2023-03-27T15:38:38.990Z,7.89
2023-03-27T15:41:39.567Z,8.13
2023-03-27T15:44:23.093Z,7.27
2023-03-27T15:46:59.622Z,7.64
2023-03-27T15:49:35.106Z,7.57
2023-03-27T15:52:30.748Z,7.44
2023-03-27T15:55:01.901Z,7.48
2023-03-27T15:57:30.590Z,7.28
2023-03-27T16:00:05.738Z,7.11
2023-03-27T16:02:42.320Z,7.07
2023-03-27T16:05:20.223Z,6.98
2023-03-27T16:07:49.412Z,7.03
2023-03-27T16:10:30.957Z,6.87
2023-03-27T16:13:02.590Z,7.04
2023-03-27T16:15:33.455Z,6.86
2023-03-27T16:18:05.097Z,7.01
2023-03-27T16:20:40.534Z,6.61
2023-03-27T16:23:08.794Z,6.75
2023-03-27T16:25:36.967Z,6.52
2023-03-27T16:28:08.374Z,6.54
2023-03-27T16:30:38.998Z,6.62
2023-03-27T16:33:15.786Z,6.85
2023-03-27T16:35:46.778Z,6.67
2023-03-27T16:38:14.745Z,6.85
2023-03-27T16:40:42.951Z,6.66
2023-03-27T16:43:11.448Z,6.54
2023-03-27T16:45:39.770Z,6.64
2023-03-27T16:48:08.261Z,7.05
2023-03-27T16:50:37.059Z,7.07
2023-03-27T16:53:06.406Z,7.07
2023-03-27T16:55:34.595Z,7.10
2023-03-27T16:58:03.713Z,6.84
2023-03-27T17:00:34.690Z,6.82
2023-03-27T17:03:03.734Z,6.96
2023-03-27T17:05:34.466Z,7.03
2023-03-27T17:08:04.545Z,6.94
2023-03-27T17:10:35.663Z,6.83
2023-03-27T17:13:03.735Z,6.67
2023-03-27T17:15:32.496Z,6.43
2023-03-27T17:18:00.638Z,6.28
2023-03-27T17:20:28.590Z,6.47
2023-03-27T17:22:57.132Z,6.47
2023-03-27T17:25:25.527Z,6.39
2023-03-27T17:27:55.013Z,6.25
2023-03-27T17:30:36.721Z,6.19
2023-03-27T17:33:06.994Z,6.16
2023-03-27T17:35:35.048Z,6.22
2023-03-27T17:38:03.422Z,6.18
2023-03-27T17:40:31.504Z,5.79
2023-03-27T17:43:00.905Z,5.98
2023-03-27T17:45:28.966Z,5.87
2023-03-27T17:47:57.045Z,5.91
2023-03-27T17:50:25.870Z,5.98
2023-03-27T17:52:54.988Z,6.17
2023-03-27T17:55:23.022Z,5.95
2023-03-27T17:58:07.759Z,6.03
2023-03-27T18:00:42.642Z,5.80
2023-03-27T18:03:11.523Z,5.82
2023-03-27T18:05:42.298Z,5.91
2023-03-27T18:08:13.989Z,5.83
2023-03-27T18:10:49.032Z,5.86
2023-03-27T18:13:22.849Z,5.98
2023-03-27T18:15:55.257Z,5.97
2023-03-27T18:18:23.373Z,6.00
2023-03-27T18:20:52.277Z,6.02
2023-03-27T18:23:20.533Z,6.08
2023-03-27T18:25:49.197Z,6.09
2023-03-27T18:28:17.606Z,5.84
2023-03-27T18:30:46.576Z,5.73
2023-03-27T18:33:16.466Z,5.78
2023-03-27T18:35:44.750Z,5.79
2023-03-27T18:38:14.306Z,5.62
2023-03-27T18:40:42.471Z,5.53
2023-03-27T18:43:12.609Z,5.52
2023-03-27T18:45:41.564Z,5.52
2023-03-27T18:48:10.351Z,5.41
2023-03-27T18:50:40.071Z,5.39
2023-03-27T18:53:08.121Z,5.15
2023-03-27T18:55:36.398Z,5.40
2023-03-27T18:58:04.740Z,5.45
2023-03-27T19:00:33.412Z,5.46
2023-03-27T19:03:01.658Z,5.33
2023-03-27T19:05:32.041Z,5.50
2023-03-27T19:08:01.660Z,5.37
2023-03-27T19:10:29.621Z,5.49
2023-03-27T19:13:17.179Z,5.56
2023-03-27T19:15:51.453Z,5.46
2023-03-27T19:18:41.058Z,4.89
2023-03-27T19:21:19.327Z,5.03
2023-03-27T19:23:55.304Z,5.01
2023-03-27T19:26:35.214Z,5.08
2023-03-27T19:29:03.229Z,5.05
2023-03-27T19:31:31.443Z,5.12
2023-03-27T19:34:00.105Z,5.13
2023-03-27T19:36:27.888Z,5.24
2023-03-27T19:38:57.173Z,5.02
2023-03-27T19:41:27.129Z,5.07
2023-03-27T19:43:55.166Z,4.98
2023-03-27T19:46:24.769Z,5.10
2023-03-27T19:48:56.042Z,5.02
2023-03-27T19:51:42.713Z,5.23
2023-03-27T19:54:15.506Z,4.90
2023-03-27T19:56:44.113Z,4.69
2023-03-27T19:59:20.775Z,4.75
2023-03-27T20:01:56.353Z,4.90
2023-03-27T20:04:24.614Z,4.87
2023-03-27T20:06:54.055Z,4.85
2023-03-27T20:09:23.709Z,4.92
2023-03-27T20:11:55.166Z,4.99
2023-03-27T20:14:23.662Z,5.00
2023-03-27T20:16:52.071Z,5.01
2023-03-27T20:19:21.971Z,4.97
2023-03-27T20:21:53.286Z,5.12
2023-03-27T20:24:22.968Z,5.04
2023-03-27T20:26:58.412Z,4.90
2023-03-27T20:29:27.674Z,4.80
2023-03-27T20:31:55.889Z,4.94
2023-03-27T20:34:24.353Z,4.97
2023-03-27T20:36:53.558Z,4.99
2023-03-27T20:39:49.323Z,5.09
2023-03-27T20:42:23.457Z,5.16
2023-03-27T20:44:55.190Z,5.17
2023-03-27T20:47:23.271Z,4.85
2023-03-27T20:49:51.254Z,4.63
2023-03-27T20:52:22.744Z,4.81
2023-03-27T20:54:52.148Z,4.91
2023-03-27T20:57:22.531Z,5.09
2023-03-27T20:59:51.198Z,5.25
2023-03-27T21:02:20.562Z,5.21
2023-03-27T21:04:48.686Z,5.26
2023-03-27T21:07:17.259Z,5.16
2023-03-27T21:09:47.956Z,5.08
2023-03-27T21:12:17.137Z,5.18
2023-03-27T21:14:45.052Z,4.94
2023-03-27T21:17:15.440Z,4.99
2023-03-27T21:19:46.054Z,5.21
2023-03-27T21:22:13.943Z,5.16
2023-03-27T21:24:42.628Z,5.12
2023-03-27T21:27:10.521Z,5.19
2023-03-27T21:29:39.901Z,5.12
2023-03-27T21:32:08.174Z,5.13
2023-03-27T21:34:36.155Z,5.11
2023-03-27T21:37:04.119Z,5.09
2023-03-27T21:39:32.090Z,5.07
2023-03-27T21:42:00.438Z,4.94
2023-03-27T21:44:28.253Z,4.91
2023-03-27T21:46:57.459Z,4.97
2023-03-27T21:49:26.955Z,4.92
2023-03-27T21:51:54.834Z,4.83
2023-03-27T21:54:22.871Z,4.77
2023-03-27T21:56:53.447Z,4.80
2023-03-27T21:59:21.272Z,4.67
2023-03-27T22:01:49.580Z,4.71
2023-03-27T22:04:20.552Z,4.58
2023-03-27T22:06:49.621Z,4.48
2023-03-27T22:09:17.952Z,4.37
2023-03-27T22:11:45.885Z,4.44
2023-03-27T22:14:13.823Z,3.93
2023-03-27T22:16:42.322Z,3.95
2023-03-27T22:19:10.929Z,3.94
2023-03-27T22:21:40.658Z,3.70
2023-03-27T22:24:09.014Z,3.52
2023-03-27T22:26:39.775Z,3.67
2023-03-27T22:29:09.157Z,3.76
2023-03-27T22:31:37.871Z,3.74
2023-03-27T22:34:06.727Z,3.79
2023-03-27T22:36:36.129Z,3.92
2023-03-27T22:39:06.216Z,4.03
2023-03-27T22:41:34.087Z,3.87
2023-03-27T22:44:02.604Z,3.79
2023-03-27T22:46:30.568Z,3.53
2023-03-27T22:49:00.838Z,3.78
2023-03-27T22:51:29.929Z,3.72
2023-03-27T22:53:57.810Z,3.81
2023-03-27T22:56:27.152Z,3.75
2023-03-27T22:58:55.198Z,3.78
2023-03-27T23:01:23.186Z,3.62
2023-03-27T23:03:51.126Z,3.71
2023-03-27T23:06:20.721Z,3.75
2023-03-27T23:08:49.190Z,3.63
2023-03-27T23:11:18.097Z,3.62
2023-03-27T23:13:48.065Z,3.58
2023-03-27T23:16:16.020Z,3.70
2023-03-27T23:18:44.019Z,3.67
2023-03-27T23:21:13.692Z,3.65
2023-03-27T23:23:41.983Z,3.71
2023-03-27T23:26:11.032Z,3.72
2023-03-27T23:28:40.313Z,3.61
2023-03-27T23:31:12.618Z,3.56
2023-03-27T23:33:42.735Z,3.38
2023-03-27T23:36:12.520Z,3.48
2023-03-27T23:38:41.830Z,3.53
2023-03-27T23:41:11.371Z,3.43
2023-03-27T23:43:39.528Z,3.53
2023-03-27T23:46:10.709Z,3.60
2023-03-27T23:48:39.822Z,3.41
2023-03-27T23:51:08.576Z,3.46
2023-03-27T23:53:38.630Z,3.56
2023-03-27T23:56:07.361Z,3.55
2023-03-27T23:58:37.069Z,3.50
